Time;durP1;ratioP1;P1;durP2;ratioP2;P2;SDS_P1;SDS_P2;PMS_P1;PMS_P2;Temp;Humidity;BMP_temperature;BMP_pressure;BME280_temperature;BME280_humidity;BME280_pressure;Samples;Min_cycle;Max_cycle;Signal;HPM_P1;HPM_P2
2024/02/18 00:01:37;;;;;;;13.17;2.20;;;12.60;99.90;;;;;;7291793;19;20206;-79
2024/02/18 00:04:03;;;;;;;10.90;2.43;;;12.70;99.90;;;;;;7307965;19;20182;-80
2024/02/18 00:06:29;;;;;;;7.53;2.17;;;12.70;99.90;;;;;;7288105;19;20187;-79
2024/02/18 00:08:55;;;;;;;9.43;2.27;;;12.70;99.90;;;;;;7285188;19;20189;-78
2024/02/18 00:11:20;;;;;;;11.93;2.37;;;12.60;99.90;;;;;;7286019;19;20614;-78
2024/02/18 00:13:46;;;;;;;11.57;2.37;;;12.60;99.90;;;;;;7286844;19;20185;-79
2024/02/18 00:16:12;;;;;;;6.23;1.90;;;12.60;99.90;;;;;;7286414;19;20651;-78
2024/02/18 00:18:38;;;;;;;7.60;2.00;;;12.60;99.90;;;;;;7293318;19;20250;-79
2024/02/18 00:21:04;;;;;;;12.30;2.10;;;12.60;99.90;;;;;;7309812;19;20184;-80
2024/02/18 00:23:30;;;;;;;11.70;2.10;;;12.50;99.90;;;;;;7286301;19;20192;-81
2024/02/18 00:25:55;;;;;;;11.23;2.33;;;12.60;99.90;;;;;;7287575;19;20185;-80
2024/02/18 00:28:21;;;;;;;11.93;2.10;;;12.60;99.90;;;;;;7286458;19;20543;-79
2024/02/18 00:30:49;;;;;;;12.80;2.37;;;12.50;99.90;;;;;;7285722;19;20190;-79
2024/02/18 00:33:20;;;;;;;12.27;2.63;;;12.50;99.90;;;;;;7286012;19;20647;-80
2024/02/18 00:35:46;;;;;;;8.70;2.47;;;12.50;99.90;;;;;;7282779;19;20185;-80
2024/02/18 00:38:12;;;;;;;8.03;2.07;;;12.50;99.90;;;;;;7286430;19;20648;-80
2024/02/18 00:40:37;;;;;;;12.57;2.67;;;12.50;99.90;;;;;;7296918;19;20187;-79
2024/02/18 00:43:03;;;;;;;12.27;2.30;;;12.50;99.90;;;;;;7306726;19;20955;-80
2024/02/18 00:45:29;;;;;;;9.67;2.40;;;12.50;99.90;;;;;;7286915;19;20196;-80
2024/02/18 00:47:54;;;;;;;10.93;2.43;;;12.50;99.90;;;;;;7285056;19;20228;-78
2024/02/18 00:50:20;;;;;;;9.50;2.20;;;12.40;99.90;;;;;;7286675;19;20199;-80
2024/02/18 00:52:46;;;;;;;7.97;1.97;;;12.40;99.90;;;;;;7285999;19;20192;-80
2024/02/18 00:55:11;;;;;;;16.13;2.47;;;12.40;99.90;;;;;;7285230;19;20201;-79
2024/02/18 00:57:37;;;;;;;10.63;2.50;;;12.40;99.90;;;;;;7296982;19;20201;-78
2024/02/18 01:00:04;;;;;;;13.87;2.73;;;12.40;99.90;;;;;;7300909;19;20268;-78
2024/02/18 01:02:30;;;;;;;10.07;2.30;;;12.40;99.90;;;;;;7283914;19;20188;-78
2024/02/18 01:04:59;;;;;;;12.83;2.60;;;12.40;99.90;;;;;;7284733;19;20559;-78
2024/02/18 01:07:25;;;;;;;9.60;2.10;;;12.40;99.90;;;;;;7286250;19;20193;-78
2024/02/18 01:09:51;;;;;;;14.77;2.60;;;12.40;99.90;;;;;;7284532;19;20211;-78
2024/02/18 01:12:17;;;;;;;11.47;2.50;;;12.30;99.90;;;;;;7284409;19;20203;-78
2024/02/18 01:14:44;;;;;;;12.57;2.73;;;12.40;99.90;;;;;;7286702;19;20223;-78
2024/02/18 01:17:09;;;;;;;12.13;2.30;;;12.40;99.90;;;;;;7284488;19;20558;-77
2024/02/18 01:19:36;;;;;;;9.83;2.40;;;12.40;99.90;;;;;;7307781;19;20268;-78
2024/02/18 01:22:02;;;;;;;9.63;2.27;;;12.40;99.90;;;;;;7285906;19;20185;-78
2024/02/18 01:24:28;;;;;;;14.30;2.60;;;12.20;99.90;;;;;;7285980;19;20186;-78
2024/02/18 01:26:54;;;;;;;13.83;2.30;;;12.10;99.90;;;;;;7285185;19;20197;-78
2024/02/18 01:29:21;;;;;;;9.17;2.50;;;12.10;99.90;;;;;;7284851;19;20664;-79
2024/02/18 01:31:47;;;;;;;8.63;2.27;;;12.20;99.90;;;;;;7284263;19;20192;-78
2024/02/18 01:34:13;;;;;;;11.63;2.50;;;12.10;99.90;;;;;;7284789;19;20190;-78
2024/02/18 01:36:39;;;;;;;11.73;2.77;;;12.20;99.90;;;;;;7283136;19;20216;-77
2024/02/18 01:39:04;;;;;;;12.67;2.50;;;12.20;99.90;;;;;;7307089;19;20214;-78
2024/02/18 01:41:30;;;;;;;10.17;3.00;;;12.20;99.90;;;;;;7283739;19;20228;-80
2024/02/18 01:43:56;;;;;;;14.00;2.70;;;12.10;99.90;;;;;;7285576;19;20432;-80
2024/02/18 01:46:22;;;;;;;10.90;2.90;;;12.00;99.90;;;;;;7284523;19;20216;-80
2024/02/18 01:48:48;;;;;;;11.17;2.80;;;12.00;99.90;;;;;;7284726;19;20600;-79
2024/02/18 01:51:14;;;;;;;11.67;2.70;;;12.00;99.90;;;;;;7284931;19;20192;-79
2024/02/18 01:53:42;;;;;;;12.80;3.13;;;12.00;99.90;;;;;;7284726;19;20208;-78
2024/02/18 01:56:09;;;;;;;13.63;3.30;;;11.90;99.90;;;;;;7290496;19;20188;-79
2024/02/18 01:58:35;;;;;;;12.87;2.77;;;11.70;99.90;;;;;;7304989;19;20523;-80
2024/02/18 02:01:03;;;;;;;13.83;2.90;;;11.70;99.90;;;;;;7282478;19;20195;-79
2024/02/18 02:03:28;;;;;;;13.53;2.97;;;11.70;99.90;;;;;;7284855;19;20196;-79
2024/02/18 02:05:55;;;;;;;10.90;2.80;;;11.60;99.90;;;;;;7284454;19;21020;-80
2024/02/18 02:08:22;;;;;;;12.93;3.17;;;11.60;99.90;;;;;;7284113;19;20192;-80
2024/02/18 02:10:50;;;;;;;11.40;2.80;;;11.80;99.90;;;;;;7283275;19;20206;-80
2024/02/18 02:13:16;;;;;;;9.70;3.03;;;11.80;99.90;;;;;;7284419;19;20185;-79
2024/02/18 02:15:41;;;;;;;11.33;3.07;;;11.90;99.90;;;;;;7283174;19;20232;-79
2024/02/18 02:18:07;;;;;;;14.03;3.13;;;12.00;99.90;;;;;;7298114;19;20193;-78
2024/02/18 02:20:33;;;;;;;10.73;2.80;;;12.00;99.90;;;;;;7301149;19;20185;-79
2024/02/18 02:22:59;;;;;;;16.33;3.10;;;11.90;99.90;;;;;;7282979;19;21019;-80
2024/02/18 02:25:24;;;;;;;15.67;3.00;;;11.90;99.90;;;;;;7284086;19;20193;-79
2024/02/18 02:28:03;;;;;;;8.87;2.87;;;11.90;99.90;;;;;;7282029;19;20196;-79
2024/02/18 02:30:29;;;;;;;13.67;3.10;;;11.90;99.90;;;;;;7283314;19;20189;-77
2024/02/18 02:32:55;;;;;;;15.67;3.37;;;11.90;99.90;;;;;;7283140;19;20644;-77
2024/02/18 02:35:21;;;;;;;13.43;3.17;;;11.80;99.90;;;;;;7283026;19;20196;-78
2024/02/18 02:37:47;;;;;;;11.47;2.83;;;11.80;99.90;;;;;;7282575;19;20187;-78
2024/02/18 02:40:13;;;;;;;14.97;3.27;;;11.70;99.90;;;;;;7282614;19;20208;-78
2024/02/18 02:42:39;;;;;;;12.80;3.20;;;11.60;99.90;;;;;;7280639;19;20193;-76
2024/02/18 02:45:05;;;;;;;14.17;3.07;;;11.70;99.90;;;;;;7305669;19;20197;-79
2024/02/18 02:47:31;;;;;;;19.77;3.33;;;11.60;99.90;;;;;;7282672;19;20204;-78
2024/02/18 02:49:56;;;;;;;8.97;2.73;;;11.60;99.90;;;;;;7282870;19;20209;-78
2024/02/18 02:52:22;;;;;;;11.37;3.00;;;11.70;99.90;;;;;;7283396;19;20197;-78
2024/02/18 02:54:48;;;;;;;12.30;2.80;;;11.70;99.90;;;;;;7281416;19;20534;-79
2024/02/18 02:57:13;;;;;;;13.07;2.97;;;11.70;99.90;;;;;;7281815;19;20671;-78
2024/02/18 02:59:39;;;;;;;10.53;2.70;;;11.50;99.90;;;;;;7285213;19;20211;-77
2024/02/18 03:02:05;;;;;;;9.40;2.80;;;11.50;99.90;;;;;;7310558;19;20190;-79
2024/02/18 03:04:31;;;;;;;13.00;2.77;;;11.60;99.90;;;;;;7289073;19;20185;-79
2024/02/18 03:06:56;;;;;;;12.13;2.67;;;11.60;99.90;;;;;;7289772;19;20326;-79
2024/02/18 03:09:22;;;;;;;12.80;2.60;;;11.60;99.90;;;;;;7288517;19;20203;-79
2024/02/18 03:11:48;;;;;;;12.77;2.80;;;11.60;99.90;;;;;;7286991;19;20200;-79
2024/02/18 03:14:13;;;;;;;14.03;2.70;;;11.50;99.90;;;;;;7289458;19;20189;-79
2024/02/18 03:16:39;;;;;;;11.27;2.70;;;11.50;99.90;;;;;;7288737;19;20195;-78
2024/02/18 03:19:05;;;;;;;12.27;2.67;;;11.60;99.90;;;;;;7311925;19;20196;-79
2024/02/18 03:21:30;;;;;;;8.60;2.43;;;11.50;99.90;;;;;;7290661;19;20191;-79
2024/02/18 03:23:56;;;;;;;18.00;3.20;;;11.60;99.90;;;;;;7291484;19;20717;-79
2024/02/18 03:26:22;;;;;;;12.37;2.57;;;11.50;99.90;;;;;;7290659;19;20979;-79
2024/02/18 03:28:48;;;;;;;13.30;2.67;;;11.40;99.90;;;;;;7291533;19;20192;-79
2024/02/18 03:31:20;;;;;;;12.00;2.50;;;11.50;99.90;;;;;;7288865;19;20199;-78
2024/02/18 03:33:46;;;;;;;12.30;2.30;;;11.50;99.90;;;;;;7290619;19;20193;-79
2024/02/18 03:36:12;;;;;;;13.43;2.60;;;11.60;99.90;;;;;;7290060;19;20196;-78
2024/02/18 03:38:38;;;;;;;12.33;2.37;;;11.50;99.90;;;;;;7302330;19;20193;-78
2024/02/18 03:41:07;;;;;;;10.23;2.70;;;11.50;99.90;;;;;;7311323;19;20185;-79
2024/02/18 03:43:33;;;;;;;11.07;2.37;;;11.50;99.90;;;;;;7289077;19;20202;-79
2024/02/18 03:45:59;;;;;;;14.57;2.50;;;11.50;99.90;;;;;;7288515;19;20211;-79
2024/02/18 03:48:25;;;;;;;11.23;2.60;;;11.50;99.90;;;;;;7287945;19;20193;-80
2024/02/18 03:50:51;;;;;;;13.43;2.73;;;11.60;99.90;;;;;;7285063;19;20193;-79
2024/02/18 03:53:17;;;;;;;16.03;2.97;;;11.50;99.90;;;;;;7286061;19;20675;-79
2024/02/18 03:55:42;;;;;;;10.27;2.37;;;11.50;99.90;;;;;;7286654;19;20193;-79
2024/02/18 03:58:10;;;;;;;13.50;2.37;;;11.40;99.90;;;;;;7297852;19;20184;-79
2024/02/18 04:00:36;;;;;;;9.37;2.43;;;11.50;99.90;;;;;;7309488;19;20196;-79
2024/02/18 04:03:02;;;;;;;9.17;2.00;;;11.60;99.90;;;;;;7286787;19;20213;-79
2024/02/18 04:05:27;;;;;;;11.87;2.80;;;11.70;99.90;;;;;;7287456;19;20201;-80
2024/02/18 04:07:53;;;;;;;7.33;2.00;;;11.80;99.90;;;;;;7287970;19;20258;-78
2024/02/18 04:10:19;;;;;;;11.77;2.30;;;11.70;99.90;;;;;;7286464;19;20762;-79
2024/02/18 04:12:45;;;;;;;12.80;2.67;;;11.80;99.90;;;;;;7288313;19;20682;-78
2024/02/18 04:15:11;;;;;;;8.57;2.10;;;11.80;99.90;;;;;;7286751;19;20186;-79
2024/02/18 04:17:36;;;;;;;16.60;2.47;;;11.80;99.90;;;;;;7306623;19;20196;-79
2024/02/18 04:20:03;;;;;;;14.07;2.23;;;11.80;99.90;;;;;;7289697;19;20195;-79
2024/02/18 04:22:29;;;;;;;9.37;1.63;;;11.70;99.90;;;;;;7288080;19;20184;-79
2024/02/18 04:24:54;;;;;;;9.90;2.03;;;11.70;99.90;;;;;;7287425;19;20193;-79
2024/02/18 04:27:20;;;;;;;8.97;2.10;;;11.70;99.90;;;;;;7286350;19;20224;-79
2024/02/18 04:29:46;;;;;;;11.20;2.40;;;11.70;99.90;;;;;;7287602;19;20213;-78
2024/02/18 04:32:13;;;;;;;15.70;2.40;;;11.70;99.90;;;;;;7285792;19;20205;-79
2024/02/18 04:34:38;;;;;;;12.47;2.27;;;11.70;99.90;;;;;;7294253;19;20195;-78
2024/02/18 04:37:04;;;;;;;11.07;2.27;;;11.60;99.90;;;;;;7307022;19;20189;-77
2024/02/18 04:39:30;;;;;;;10.23;2.10;;;11.60;99.90;;;;;;7286307;19;20206;-79
2024/02/18 04:41:56;;;;;;;9.10;2.03;;;11.60;99.90;;;;;;7284960;19;20857;-80
2024/02/18 04:44:21;;;;;;;11.23;2.50;;;11.70;99.90;;;;;;7286408;19;20200;-80
2024/02/18 04:46:47;;;;;;;8.13;2.20;;;11.60;99.90;;;;;;7286955;19;20230;-78
2024/02/18 04:49:14;;;;;;;14.13;2.43;;;11.60;99.90;;;;;;7286604;19;20533;-78
2024/02/18 04:51:39;;;;;;;11.50;2.00;;;11.60;99.90;;;;;;7292883;19;20193;-78
2024/02/18 04:54:05;;;;;;;9.33;2.03;;;11.60;99.90;;;;;;7316478;19;20206;-77
2024/02/18 04:56:31;;;;;;;11.33;2.40;;;11.60;99.90;;;;;;7295467;19;20652;-78
2024/02/18 04:58:57;;;;;;;12.90;2.23;;;11.60;99.90;;;;;;7299663;19;20766;-79
2024/02/18 05:01:22;;;;;;;14.77;2.50;;;11.70;99.90;;;;;;7300028;19;20640;-78
2024/02/18 05:03:48;;;;;;;13.93;2.53;;;11.70;99.90;;;;;;7298213;19;20192;-78
2024/02/18 05:06:13;;;;;;;13.23;2.20;;;11.50;99.90;;;;;;7289388;19;20191;-78
2024/02/18 05:08:39;;;;;;;11.97;2.40;;;11.60;99.90;;;;;;7285057;19;20176;-79
2024/02/18 05:11:05;;;;;;;9.33;2.40;;;11.40;99.90;;;;;;7304094;19;20276;-78
2024/02/18 05:13:31;;;;;;;13.07;2.77;;;11.40;99.90;;;;;;7283349;19;20187;-78
2024/02/18 05:15:56;;;;;;;11.43;2.10;;;11.50;99.90;;;;;;7282467;19;21047;-78
2024/02/18 05:18:22;;;;;;;10.97;2.03;;;11.40;99.90;;;;;;7280979;19;20577;-78
2024/02/18 05:20:48;;;;;;;10.93;2.13;;;11.40;99.90;;;;;;7284264;19;20252;-79
2024/02/18 05:23:14;;;;;;;10.07;2.40;;;11.40;99.90;;;;;;7283471;19;20211;-79
2024/02/18 05:25:40;;;;;;;15.77;2.47;;;11.50;99.90;;;;;;7286313;19;20201;-77
2024/02/18 05:28:07;;;;;;;10.37;2.17;;;11.60;99.90;;;;;;7307836;19;20188;-79
2024/02/18 05:30:34;;;;;;;13.00;2.20;;;11.60;99.90;;;;;;7285478;19;20212;-78
2024/02/18 05:33:00;;;;;;;11.73;2.10;;;11.60;99.90;;;;;;7285099;19;21528;-79
2024/02/18 05:35:26;;;;;;;10.10;2.23;;;11.60;99.90;;;;;;7284241;19;20281;-78
2024/02/18 05:37:52;;;;;;;12.63;2.63;;;11.60;99.90;;;;;;7283376;19;20587;-79
2024/02/18 05:40:18;;;;;;;11.43;2.20;;;11.60;99.90;;;;;;7285394;19;20244;-78
2024/02/18 05:42:44;;;;;;;14.20;2.50;;;11.50;99.90;;;;;;7284340;19;20629;-78
2024/02/18 05:45:10;;;;;;;11.10;2.17;;;11.40;99.90;;;;;;7283788;19;20189;-78
2024/02/18 05:47:36;;;;;;;14.63;2.60;;;11.40;99.90;;;;;;7307533;19;20208;-79
2024/02/18 05:50:03;;;;;;;11.37;2.20;;;11.50;99.90;;;;;;7283736;19;20312;-78
2024/02/18 05:52:29;;;;;;;10.53;2.23;;;11.50;99.90;;;;;;7285962;19;20232;-79
2024/02/18 05:54:54;;;;;;;12.47;2.60;;;11.40;99.90;;;;;;7283283;19;20185;-79
2024/02/18 05:57:20;;;;;;;12.10;2.87;;;11.40;99.90;;;;;;7284592;19;20207;-78
2024/02/18 05:59:46;;;;;;;9.33;2.20;;;11.40;99.90;;;;;;7284342;19;20188;-79
2024/02/18 06:02:12;;;;;;;14.57;2.63;;;11.40;99.90;;;;;;7284382;19;20205;-77
2024/02/18 06:04:37;;;;;;;11.10;2.50;;;11.30;99.90;;;;;;7305947;19;20195;-76
2024/02/18 06:07:03;;;;;;;10.60;2.50;;;11.30;99.90;;;;;;7284231;19;20195;-78
2024/02/18 06:09:29;;;;;;;12.83;2.80;;;11.30;99.90;;;;;;7282642;19;20190;-78
2024/02/18 06:11:55;;;;;;;12.67;2.60;;;11.10;99.90;;;;;;7282152;19;20197;-78
2024/02/18 06:14:21;;;;;;;12.57;2.50;;;11.10;99.90;;;;;;7281836;19;20721;-78
2024/02/18 06:16:46;;;;;;;8.93;2.60;;;11.10;99.90;;;;;;7281554;19;20191;-78
2024/02/18 06:19:12;;;;;;;12.97;2.57;;;11.10;99.90;;;;;;7281530;19;20189;-77
2024/02/18 06:21:38;;;;;;;13.37;2.77;;;10.90;99.90;;;;;;7302937;19;20188;-75
2024/02/18 06:24:04;;;;;;;14.03;2.77;;;10.80;99.90;;;;;;7290595;19;20184;-78
2024/02/18 06:26:30;;;;;;;12.07;2.53;;;10.90;99.90;;;;;;7281172;19;20198;-78
2024/02/18 06:28:55;;;;;;;14.07;2.97;;;10.90;99.90;;;;;;7282907;19;20834;-78
2024/02/18 06:31:21;;;;;;;14.87;2.80;;;10.90;99.90;;;;;;7282815;19;20198;-78
2024/02/18 06:33:47;;;;;;;15.23;3.00;;;10.90;99.90;;;;;;7283396;19;20210;-78
2024/02/18 06:36:14;;;;;;;12.23;2.90;;;10.90;99.90;;;;;;7289385;19;20216;-78
2024/02/18 06:38:44;;;;;;;10.63;2.67;;;10.70;99.90;;;;;;7288627;19;20197;-78
2024/02/18 06:41:10;;;;;;;10.80;3.00;;;10.80;99.90;;;;;;7289833;19;20205;-79
2024/02/18 06:43:36;;;;;;;10.20;2.90;;;10.70;99.90;;;;;;7310699;19;20315;-80
2024/02/18 06:46:03;;;;;;;9.07;2.43;;;10.80;99.90;;;;;;7289601;19;20211;-79
2024/02/18 06:48:30;;;;;;;13.20;2.87;;;10.70;99.90;;;;;;7291172;19;20507;-80
2024/02/18 06:50:56;;;;;;;15.13;3.17;;;10.70;99.90;;;;;;7285595;19;20189;-79
2024/02/18 06:53:22;;;;;;;11.73;2.90;;;10.70;99.90;;;;;;7286769;19;20196;-79
2024/02/18 06:55:48;;;;;;;9.17;2.50;;;10.60;99.90;;;;;;7288919;19;20203;-80
2024/02/18 06:58:16;;;;;;;13.80;2.90;;;10.60;99.90;;;;;;7286604;19;20203;-80
2024/02/18 07:00:42;;;;;;;13.40;3.33;;;10.50;99.90;;;;;;7289684;19;20295;-81
2024/02/18 07:03:07;;;;;;;13.60;3.23;;;10.50;99.90;;;;;;7310704;19;20590;-80
2024/02/18 07:05:33;;;;;;;13.57;3.40;;;10.50;99.90;;;;;;7289789;19;20193;-80
2024/02/18 07:07:59;;;;;;;15.53;2.83;;;10.60;99.90;;;;;;7287869;19;20746;-79
2024/02/18 07:10:25;;;;;;;12.93;3.10;;;10.50;99.90;;;;;;7288078;19;20219;-79
2024/02/18 07:12:51;;;;;;;9.77;2.80;;;10.50;99.90;;;;;;7288564;19;20200;-80
2024/02/18 07:15:17;;;;;;;17.17;3.27;;;10.40;99.90;;;;;;7288442;19;20246;-80
2024/02/18 07:17:42;;;;;;;11.23;3.20;;;10.50;99.90;;;;;;7286854;19;20199;-80
2024/02/18 07:20:09;;;;;;;11.97;2.70;;;10.50;99.90;;;;;;7303169;19;20207;-79
2024/02/18 07:22:35;;;;;;;12.50;3.17;;;10.40;99.90;;;;;;7309264;19;20203;-79
2024/02/18 07:25:02;;;;;;;11.47;3.20;;;10.40;99.90;;;;;;7287305;19;20549;-80
2024/02/18 07:27:28;;;;;;;13.07;3.13;;;10.30;99.90;;;;;;7286004;19;20209;-80
2024/02/18 07:29:53;;;;;;;12.90;3.47;;;10.20;99.90;;;;;;7286827;19;20199;-80
2024/02/18 07:32:19;;;;;;;14.10;3.63;;;10.10;99.90;;;;;;7286586;19;20249;-80
2024/02/18 07:34:45;;;;;;;15.37;3.40;;;10.10;99.90;;;;;;7287282;19;20205;-79
2024/02/18 07:37:11;;;;;;;16.43;4.10;;;10.10;99.90;;;;;;7282570;19;20196;-79
2024/02/18 07:39:36;;;;;;;11.90;3.30;;;10.20;99.90;;;;;;7306616;19;20188;-80
2024/02/18 07:42:02;;;;;;;9.17;3.30;;;10.20;99.90;;;;;;7285664;19;20280;-80
2024/02/18 07:44:28;;;;;;;11.03;3.47;;;10.20;99.90;;;;;;7284855;19;20200;-79
2024/02/18 07:46:57;;;;;;;13.23;3.47;;;10.10;99.90;;;;;;7286457;19;21807;-79
2024/02/18 07:49:25;;;;;;;14.97;3.50;;;10.20;99.90;;;;;;7284488;19;20188;-80
2024/02/18 07:51:51;;;;;;;11.77;3.30;;;10.20;99.90;;;;;;7286819;19;20196;-80
2024/02/18 07:54:17;;;;;;;10.83;3.30;;;10.20;99.90;;;;;;7285223;19;20190;-79
2024/02/18 07:56:44;;;;;;;12.07;3.50;;;10.10;99.90;;;;;;7284288;19;20199;-80
2024/02/18 07:59:11;;;;;;;15.47;3.40;;;10.10;99.90;;;;;;7283884;19;20187;-79
2024/02/18 08:01:37;;;;;;;10.60;3.43;;;10.20;99.90;;;;;;7305852;19;20711;-81
2024/02/18 08:04:03;;;;;;;12.73;2.77;;;10.20;99.90;;;;;;7284028;19;20183;-80
2024/02/18 08:06:29;;;;;;;11.97;2.83;;;10.30;99.90;;;;;;7284736;19;20650;-80
2024/02/18 08:08:55;;;;;;;11.33;2.77;;;10.20;99.90;;;;;;7284516;19;20191;-80
2024/02/18 08:11:21;;;;;;;10.17;2.80;;;10.30;99.90;;;;;;7283353;19;20187;-80
2024/02/18 08:13:47;;;;;;;13.60;2.93;;;10.30;99.90;;;;;;7285220;19;20185;-80
2024/02/18 08:16:14;;;;;;;10.83;2.73;;;10.30;99.90;;;;;;7284481;19;20188;-78
2024/02/18 08:18:39;;;;;;;13.33;2.93;;;10.20;99.90;;;;;;7289457;19;20195;-79
2024/02/18 08:21:05;;;;;;;13.23;2.80;;;10.30;99.90;;;;;;7307961;19;20183;-79
2024/02/18 08:23:31;;;;;;;8.77;2.50;;;10.30;99.90;;;;;;7282548;19;20270;-79
2024/02/18 08:25:57;;;;;;;11.50;2.70;;;10.40;99.90;;;;;;7282372;19;20192;-79
2024/02/18 08:28:23;;;;;;;13.97;3.20;;;10.60;99.90;;;;;;7136332;19;2777278;-80
2024/02/18 08:30:49;;;;;;;13.27;2.57;;;10.80;99.90;;;;;;7283900;19;20192;-80
2024/02/18 08:33:15;;;;;;;9.17;2.33;;;10.80;99.90;;;;;;7286497;19;20571;-79
2024/02/18 08:35:41;;;;;;;10.43;2.73;;;10.90;99.90;;;;;;7286940;19;20210;-79
2024/02/18 08:38:07;;;;;;;10.60;2.93;;;10.90;99.90;;;;;;7306870;19;20227;-80
2024/02/18 08:40:32;;;;;;;11.17;2.93;;;10.90;99.90;;;;;;7286424;19;20187;-80
2024/02/18 08:42:58;;;;;;;11.47;2.60;;;10.90;99.90;;;;;;7285017;19;20236;-80
2024/02/18 08:45:24;;;;;;;15.30;2.60;;;11.00;99.90;;;;;;7285774;19;20208;-80
2024/02/18 08:47:49;;;;;;;8.90;2.40;;;11.00;99.90;;;;;;7286731;19;20188;-79
2024/02/18 08:50:15;;;;;;;14.53;2.57;;;11.00;99.90;;;;;;7285528;19;20198;-80
2024/02/18 08:52:41;;;;;;;14.43;2.93;;;11.10;99.90;;;;;;7284568;19;20707;-79
2024/02/18 08:55:07;;;;;;;8.77;2.20;;;11.30;99.90;;;;;;7308789;19;20244;-80
2024/02/18 08:57:32;;;;;;;11.97;2.17;;;11.30;99.90;;;;;;7282314;19;20638;-80
2024/02/18 09:00:02;;;;;;;14.00;2.17;;;11.20;99.90;;;;;;7284841;19;20213;-79
2024/02/18 09:02:28;;;;;;;13.63;2.73;;;11.30;99.90;;;;;;7285807;19;20216;-81
2024/02/18 09:04:54;;;;;;;12.93;2.27;;;11.40;99.90;;;;;;7285189;19;20954;-80
2024/02/18 09:07:19;;;;;;;13.03;2.23;;;11.50;99.90;;;;;;7284200;19;20200;-79
2024/02/18 09:09:45;;;;;;;10.20;2.30;;;11.50;99.90;;;;;;7284841;19;20711;-81
2024/02/18 09:12:11;;;;;;;8.47;2.10;;;11.40;99.90;;;;;;7284718;19;20192;-78
2024/02/18 09:14:37;;;;;;;11.80;2.33;;;11.50;99.90;;;;;;7308970;19;20245;-80
2024/02/18 09:17:02;;;;;;;12.17;2.30;;;11.70;99.90;;;;;;7285026;19;20289;-80
2024/02/18 09:19:28;;;;;;;11.80;2.50;;;11.60;99.90;;;;;;7284752;19;21661;-79
2024/02/18 09:21:54;;;;;;;10.20;2.30;;;11.70;99.90;;;;;;7285527;19;20637;-79
2024/02/18 09:24:19;;;;;;;10.70;2.00;;;11.70;99.90;;;;;;7284616;19;20652;-80
2024/02/18 09:26:45;;;;;;;15.30;3.00;;;11.90;99.90;;;;;;7283089;19;20597;-80
2024/02/18 09:29:11;;;;;;;7.90;1.90;;;12.00;99.90;;;;;;7284654;19;20196;-80
2024/02/18 09:31:37;;;;;;;14.33;2.30;;;12.00;99.90;;;;;;7304237;19;20390;-79
2024/02/18 09:34:03;;;;;;;10.30;2.07;;;11.90;99.90;;;;;;7285298;19;20256;-79
2024/02/18 09:36:29;;;;;;;12.50;2.10;;;11.80;99.90;;;;;;7284190;19;20236;-81
2024/02/18 09:38:55;;;;;;;11.63;2.20;;;12.00;99.90;;;;;;7284837;19;20197;-80
2024/02/18 09:41:26;;;;;;;12.10;1.90;;;12.10;99.90;;;;;;7284185;19;20200;-80
2024/02/18 09:43:53;;;;;;;8.83;2.20;;;12.10;99.90;;;;;;7283004;19;20197;-80
2024/02/18 09:46:20;;;;;;;8.73;2.07;;;12.10;99.90;;;;;;7284729;19;20229;-80
2024/02/18 09:48:46;;;;;;;7.97;1.97;;;12.20;99.90;;;;;;7284646;19;20194;-80
2024/02/18 09:51:15;;;;;;;9.37;2.10;;;12.20;99.90;;;;;;7282565;19;20208;-80
2024/02/18 09:53:41;;;;;;;11.77;2.27;;;12.30;99.90;;;;;;7285224;19;20204;-79
2024/02/18 09:56:07;;;;;;;10.07;1.90;;;12.20;99.90;;;;;;7304752;19;20570;-80
2024/02/18 09:58:33;;;;;;;12.60;2.43;;;12.10;99.90;;;;;;7282154;19;20563;-80
2024/02/18 10:01:01;;;;;;;13.83;2.17;;;12.10;99.90;;;;;;7284835;19;20638;-80
2024/02/18 10:03:27;;;;;;;8.83;2.00;;;12.10;99.90;;;;;;7283234;19;20214;-80
2024/02/18 10:05:54;;;;;;;8.80;2.00;;;12.10;99.90;;;;;;7271468;19;20190;-80
2024/02/18 10:08:20;;;;;;;6.97;1.80;;;12.00;99.90;;;;;;7278736;19;20193;-80
2024/02/18 10:10:46;;;;;;;9.73;2.40;;;12.10;99.90;;;;;;7278375;19;20834;-80
2024/02/18 10:13:12;;;;;;;10.37;2.10;;;12.20;99.90;;;;;;7276747;19;20226;-79
2024/02/18 10:15:38;;;;;;;13.27;2.87;;;12.00;99.90;;;;;;7299093;19;20185;-80
2024/02/18 10:18:07;;;;;;;9.50;2.03;;;12.10;99.90;;;;;;7277942;19;20190;-80
2024/02/18 10:20:33;;;;;;;11.17;2.20;;;12.20;99.90;;;;;;7279006;19;20192;-79
2024/02/18 10:22:58;;;;;;;9.03;2.17;;;12.30;99.90;;;;;;7277634;19;20407;-80
2024/02/18 10:25:24;;;;;;;7.90;1.83;;;12.10;99.90;;;;;;7277327;19;20195;-80
2024/02/18 10:27:55;;;;;;;9.63;2.10;;;12.10;99.90;;;;;;7273050;19;20197;-80
2024/02/18 10:30:21;;;;;;;14.13;2.50;;;12.10;99.90;;;;;;7274420;19;20188;-80
2024/02/18 10:32:46;;;;;;;8.57;2.00;;;12.20;99.90;;;;;;7272089;19;20219;-80
2024/02/18 10:35:12;;;;;;;10.27;2.30;;;12.10;99.90;;;;;;7273122;19;20196;-80
2024/02/18 10:37:42;;;;;;;7.97;2.00;;;12.00;99.90;;;;;;7293947;19;20503;-80
2024/02/18 10:40:15;;;;;;;11.10;2.43;;;11.80;99.90;;;;;;7281006;19;20221;-80
2024/02/18 10:42:51;;;;;;;8.50;2.20;;;11.60;99.90;;;;;;7255225;19;20549;-80
2024/02/18 10:45:17;;;;;;;9.70;2.57;;;11.50;99.90;;;;;;7277887;19;20196;-80
2024/02/18 10:47:48;;;;;;;8.10;2.63;;;11.40;99.90;;;;;;7277311;19;20230;-80
2024/02/18 10:50:17;;;;;;;10.90;2.63;;;11.30;99.90;;;;;;7277161;19;21682;-80
2024/02/18 10:52:46;;;;;;;10.33;2.53;;;11.30;99.90;;;;;;7277942;19;20207;-80
2024/02/18 10:55:24;;;;;;;12.97;2.60;;;11.20;99.90;;;;;;7278462;19;20631;-80
2024/02/18 10:58:14;;;;;;;8.67;2.53;;;11.00;99.90;;;;;;7276484;19;20829;-80
2024/02/18 11:00:45;;;;;;;12.57;2.83;;;11.10;99.90;;;;;;7259284;19;20965;-80
2024/02/18 11:03:25;;;;;;;15.03;2.77;;;10.90;99.90;;;;;;7277530;19;20192;-80
2024/02/18 11:05:51;;;;;;;9.93;3.03;;;10.70;99.90;;;;;;7276873;19;20193;-79
2024/02/18 11:08:18;;;;;;;10.40;3.10;;;10.70;99.90;;;;;;7277926;19;20318;-80
2024/02/18 11:10:44;;;;;;;10.80;2.77;;;10.50;99.90;;;;;;7276144;19;20193;-79
2024/02/18 11:13:11;;;;;;;10.43;2.63;;;10.50;99.90;;;;;;7281698;19;20201;-79
2024/02/18 11:15:37;;;;;;;9.53;2.57;;;10.60;99.90;;;;;;7298109;19;20208;-79
2024/02/18 11:18:04;;;;;;;10.83;2.50;;;10.60;99.90;;;;;;7274628;19;20187;-79
2024/02/18 11:20:30;;;;;;;9.43;3.00;;;10.60;99.90;;;;;;7280575;19;20194;-80
2024/02/18 11:22:57;;;;;;;9.07;2.60;;;10.50;99.90;;;;;;7283309;19;20295;-78
2024/02/18 11:25:23;;;;;;;8.90;3.30;;;10.40;99.90;;;;;;7283554;19;20202;-79
2024/02/18 11:27:48;;;;;;;9.70;3.27;;;10.40;99.90;;;;;;7282305;19;20200;-79
2024/02/18 11:30:15;;;;;;;10.17;2.90;;;10.50;99.90;;;;;;7282983;19;20188;-79
2024/02/18 11:32:41;;;;;;;8.60;3.57;;;10.60;99.90;;;;;;7283076;19;20227;-77
2024/02/18 11:35:08;;;;;;;23.67;12.33;;;10.60;99.90;;;;;;7303499;19;20704;-78
2024/02/18 11:37:34;;;;;;;10.40;4.07;;;10.60;99.90;;;;;;7284295;19;20547;-78
2024/02/18 11:40:06;;;;;;;9.67;3.50;;;10.60;99.90;;;;;;7283967;19;20249;-78
2024/02/18 11:42:35;;;;;;;10.57;2.60;;;10.80;99.90;;;;;;7279432;19;20259;-79
2024/02/18 11:45:17;;;;;;;10.93;2.53;;;10.90;99.90;;;;;;7279474;19;20189;-79
2024/02/18 11:47:50;;;;;;;7.73;2.60;;;11.00;99.90;;;;;;7259684;19;20200;-80
2024/02/18 11:50:18;;;;;;;9.53;2.83;;;11.00;99.90;;;;;;7280219;19;20193;-80
2024/02/18 11:52:45;;;;;;;10.93;2.70;;;11.00;99.90;;;;;;7281659;19;20253;-79
2024/02/18 11:55:15;;;;;;;10.50;2.63;;;10.90;99.90;;;;;;7282170;19;20199;-78
2024/02/18 11:57:41;;;;;;;7.20;2.50;;;10.90;99.90;;;;;;7287663;19;20221;-79
2024/02/18 12:00:16;;;;;;;7.17;2.80;;;10.90;99.90;;;;;;7308195;19;20263;-79
2024/02/18 12:02:49;;;;;;;11.17;3.10;;;11.00;99.90;;;;;;7265195;19;20624;-80
2024/02/18 12:05:16;;;;;;;11.13;3.60;;;11.00;99.90;;;;;;7287533;19;20200;-79
2024/02/18 12:07:42;;;;;;;9.33;3.80;;;10.90;99.90;;;;;;7290448;19;20192;-77
2024/02/18 12:10:08;;;;;;;11.03;3.37;;;10.80;99.90;;;;;;7306890;19;20291;-79
2024/02/18 12:12:34;;;;;;;10.73;4.17;;;10.80;99.90;;;;;;7285209;19;20193;-79
2024/02/18 12:15:00;;;;;;;9.47;3.53;;;10.90;99.90;;;;;;7284682;19;20704;-78
2024/02/18 12:17:26;;;;;;;8.97;3.70;;;10.90;99.90;;;;;;7282375;19;20244;-79
2024/02/18 12:19:52;;;;;;;9.10;3.50;;;10.90;99.90;;;;;;7284254;19;20196;-79
2024/02/18 12:22:27;;;;;;;11.33;4.03;;;11.10;99.90;;;;;;7282584;19;20249;-78
2024/02/18 12:24:54;;;;;;;9.40;3.73;;;11.20;99.90;;;;;;7281758;19;20197;-79
2024/02/18 12:27:21;;;;;;;11.87;4.43;;;11.20;99.90;;;;;;7280008;19;21812;-79
2024/02/18 12:29:48;;;;;;;8.03;3.67;;;11.20;99.90;;;;;;7282083;19;20194;-79
2024/02/18 12:32:14;;;;;;;9.13;3.37;;;11.20;99.90;;;;;;7280814;19;20565;-78
2024/02/18 12:34:44;;;;;;;8.23;3.37;;;11.20;99.90;;;;;;7295619;19;20188;-77